createdAt,value
2022-10-02T00:01:55.727Z,14.20
2022-10-02T00:04:39.904Z,14.20
2022-10-02T00:07:10.440Z,14.10
2022-10-02T00:09:49.514Z,15.30
2022-10-02T00:12:20.575Z,13.90
2022-10-02T00:14:49.953Z,13.90
2022-10-02T00:17:32.644Z,13.80
2022-10-02T00:20:00.560Z,13.70
2022-10-02T00:22:36.043Z,13.70
2022-10-02T00:25:24.887Z,13.70
2022-10-02T00:27:57.569Z,13.70
2022-10-02T00:30:24.391Z,13.70
2022-10-02T00:33:27.525Z,13.80
2022-10-02T00:36:04.545Z,13.80
2022-10-02T00:38:50.129Z,13.80
2022-10-02T00:41:26.575Z,13.80
2022-10-02T00:44:21.343Z,13.70
2022-10-02T00:47:10.729Z,13.70
2022-10-02T00:49:54.144Z,13.60
2022-10-02T00:52:39.924Z,13.50
2022-10-02T00:55:34.344Z,13.50
2022-10-02T00:58:40.184Z,13.50
2022-10-02T01:01:13.885Z,13.60
2022-10-02T01:03:44.301Z,13.60
2022-10-02T01:06:12.374Z,13.50
2022-10-02T01:08:39.698Z,13.50
2022-10-02T01:11:07.831Z,13.40
2022-10-02T01:13:34.582Z,13.30
2022-10-02T01:16:03.297Z,13.10
2022-10-02T01:18:31.103Z,13.10
2022-10-02T01:21:05.157Z,13.10
2022-10-02T01:23:52.300Z,13.00
2022-10-02T01:26:19.178Z,13.00
2022-10-02T01:28:46.911Z,13.00
2022-10-02T01:31:15.308Z,13.10
2022-10-02T01:33:44.674Z,13.20
2022-10-02T01:36:13.611Z,13.20
2022-10-02T01:38:42.966Z,13.20
2022-10-02T01:41:13.108Z,13.20
2022-10-02T01:43:49.247Z,13.20
2022-10-02T01:46:47.023Z,13.20
2022-10-02T01:49:16.806Z,13.20
2022-10-02T01:52:09.282Z,13.20
2022-10-02T01:54:51.702Z,13.20
2022-10-02T01:57:37.397Z,13.20
2022-10-02T02:00:07.976Z,13.20
2022-10-02T02:02:52.651Z,13.20
2022-10-02T02:05:46.744Z,13.10
2022-10-02T02:08:25.865Z,13.10
2022-10-02T02:11:02.232Z,13.10
2022-10-02T02:13:46.526Z,13.10
2022-10-02T02:16:25.942Z,13.00
2022-10-02T02:19:17.064Z,13.00
2022-10-02T02:22:08.316Z,13.00
2022-10-02T02:24:41.053Z,13.00
2022-10-02T02:27:14.715Z,13.00
2022-10-02T02:29:44.252Z,13.00
2022-10-02T02:32:16.248Z,13.10
2022-10-02T02:34:47.955Z,13.00
2022-10-02T02:37:19.191Z,13.00
2022-10-02T02:39:53.703Z,12.90
2022-10-02T02:42:26.228Z,12.90
2022-10-02T02:45:22.743Z,12.90
2022-10-02T02:47:53.361Z,12.90
2022-10-02T02:50:35.429Z,12.90
2022-10-02T02:53:17.091Z,12.90
2022-10-02T02:56:00.453Z,12.90
2022-10-02T02:58:51.652Z,12.90
2022-10-02T03:01:18.587Z,12.90
2022-10-02T03:03:45.765Z,12.90
2022-10-02T03:06:18.971Z,12.90
2022-10-02T03:08:47.668Z,12.90
2022-10-02T03:11:23.743Z,12.80
2022-10-02T03:13:55.431Z,12.90
2022-10-02T03:16:28.950Z,12.90
2022-10-02T03:19:11.026Z,12.90
2022-10-02T03:22:03.669Z,12.80
2022-10-02T03:24:49.591Z,12.80
2022-10-02T03:27:43.820Z,12.90
2022-10-02T03:30:13.475Z,12.90
2022-10-02T03:32:43.885Z,12.80
2022-10-02T03:35:13.131Z,12.80
2022-10-02T03:37:44.469Z,12.90
2022-10-02T03:40:11.478Z,12.90
2022-10-02T03:42:38.907Z,12.90
2022-10-02T03:45:06.448Z,12.90
2022-10-02T03:47:33.222Z,13.00
2022-10-02T03:49:59.916Z,13.00
2022-10-02T03:52:26.692Z,13.00
2022-10-02T03:55:01.721Z,13.00
2022-10-02T03:57:32.319Z,13.10
2022-10-02T04:00:12.611Z,13.00
2022-10-02T04:02:44.669Z,12.90
2022-10-02T04:05:28.719Z,12.90
2022-10-02T04:08:00.463Z,12.80
2022-10-02T04:10:41.842Z,13.00
2022-10-02T04:13:30.063Z,13.00
2022-10-02T04:16:02.623Z,13.00
2022-10-02T04:18:48.929Z,13.00
2022-10-02T04:21:43.091Z,12.90
2022-10-02T04:24:54.763Z,13.00
2022-10-02T04:27:43.297Z,13.00
2022-10-02T04:30:17.306Z,12.80
2022-10-02T04:32:44.533Z,12.70
2022-10-02T04:35:17.465Z,12.60
2022-10-02T04:38:09.546Z,12.70
2022-10-02T04:40:39.143Z,12.60
2022-10-02T04:43:30.191Z,12.60
2022-10-02T04:46:28.224Z,12.50
2022-10-02T04:49:08.305Z,12.40
2022-10-02T04:51:53.593Z,12.40
2022-10-02T04:54:44.433Z,12.40
2022-10-02T04:57:41.903Z,12.50
2022-10-02T05:00:26.858Z,12.60
2022-10-02T05:03:18.760Z,12.50
2022-10-02T05:06:00.992Z,12.60
2022-10-02T05:08:30.732Z,12.70
2022-10-02T05:11:09.447Z,12.70
2022-10-02T05:13:36.257Z,12.80
2022-10-02T05:16:35.572Z,12.80
2022-10-02T05:19:36.927Z,12.90
2022-10-02T05:22:11.997Z,12.90
2022-10-02T05:25:03.188Z,13.00
2022-10-02T05:27:54.543Z,13.00
2022-10-02T05:30:21.821Z,13.00
2022-10-02T05:33:03.786Z,13.00
2022-10-02T05:35:53.325Z,12.90
2022-10-02T05:39:03.600Z,13.00
2022-10-02T05:41:58.042Z,13.20
2022-10-02T05:44:53.940Z,13.20
2022-10-02T05:47:30.731Z,13.30
2022-10-02T05:50:13.921Z,13.40
2022-10-02T05:52:50.182Z,13.40
2022-10-02T05:55:23.878Z,13.50
2022-10-02T05:58:12.492Z,13.50
2022-10-02T06:00:47.958Z,13.60
2022-10-02T06:03:18.223Z,13.70
2022-10-02T06:05:57.142Z,13.80
2022-10-02T06:08:35.779Z,13.80
2022-10-02T06:11:41.275Z,13.80
2022-10-02T06:14:14.413Z,13.70
2022-10-02T06:16:53.925Z,13.70
2022-10-02T06:19:44.139Z,13.80
2022-10-02T06:22:19.847Z,13.80
2022-10-02T06:25:03.523Z,13.70
2022-10-02T06:27:44.152Z,13.80
2022-10-02T06:30:14.106Z,14.00
2022-10-02T06:33:01.813Z,14.10
2022-10-02T06:36:05.549Z,14.10
2022-10-02T06:39:00.889Z,14.10
2022-10-02T06:41:50.570Z,14.30
2022-10-02T06:45:09.513Z,14.60
2022-10-02T06:48:03.596Z,14.70
2022-10-02T06:50:58.886Z,14.60
2022-10-02T06:53:57.139Z,14.80
2022-10-02T06:56:42.352Z,15.10
2022-10-02T06:59:47.042Z,15.20
2022-10-02T07:02:34.891Z,15.30
2022-10-02T07:05:08.059Z,15.80
2022-10-02T07:08:15.297Z,16.00
2022-10-02T07:10:45.091Z,15.90
2022-10-02T07:13:12.622Z,16.10
2022-10-02T07:15:42.061Z,16.20
2022-10-02T07:18:19.580Z,16.30
2022-10-02T07:21:01.126Z,16.40
2022-10-02T07:23:44.566Z,16.40
2022-10-02T07:26:56.808Z,16.50
2022-10-02T07:30:07.905Z,16.40
2022-10-02T07:32:49.647Z,16.50
2022-10-02T07:35:43.188Z,16.90
2022-10-02T07:38:44.229Z,17.30
2022-10-02T07:41:25.963Z,18.10
2022-10-02T07:44:16.316Z,18.00
2022-10-02T07:47:12.530Z,18.10
2022-10-02T07:49:57.280Z,18.00
2022-10-02T07:52:46.074Z,17.90
2022-10-02T07:55:24.623Z,17.80
2022-10-02T07:57:58.885Z,17.80
2022-10-02T08:00:28.464Z,18.10
2022-10-02T08:03:00.434Z,18.60
2022-10-02T08:05:33.287Z,19.00
2022-10-02T08:08:06.868Z,19.20
2022-10-02T08:10:41.241Z,19.20
2022-10-02T08:13:27.107Z,19.30
2022-10-02T08:15:56.455Z,19.30
2022-10-02T08:18:40.408Z,19.70
2022-10-02T08:21:14.825Z,19.90
2022-10-02T08:24:02.455Z,19.80
2022-10-02T08:26:36.126Z,19.80
2022-10-02T08:29:34.784Z,19.50
2022-10-02T08:32:02.649Z,19.50
2022-10-02T08:34:30.727Z,19.50
2022-10-02T08:37:19.096Z,19.60
2022-10-02T08:40:24.520Z,19.60
2022-10-02T08:43:24.944Z,19.70
2022-10-02T08:46:16.665Z,19.70
2022-10-02T08:49:02.264Z,19.80
2022-10-02T08:52:05.422Z,20.10
2022-10-02T08:54:35.610Z,20.60
2022-10-02T08:57:12.669Z,20.70
2022-10-02T08:59:48.545Z,20.80
2022-10-02T09:02:19.868Z,20.90
2022-10-02T09:05:26.021Z,21.10
2022-10-02T09:08:26.841Z,21.30
2022-10-02T09:11:26.671Z,21.80
2022-10-02T09:14:19.848Z,21.90
2022-10-02T09:17:04.747Z,22.20
2022-10-02T09:19:46.908Z,22.60
2022-10-02T09:22:38.042Z,23.00
2022-10-02T09:25:23.046Z,23.20
2022-10-02T09:27:59.760Z,23.30
2022-10-02T09:30:36.216Z,23.40
2022-10-02T09:33:44.991Z,23.50
2022-10-02T09:36:30.877Z,23.60
2022-10-02T09:39:09.679Z,23.70
2022-10-02T09:42:21.453Z,23.90
2022-10-02T09:45:01.566Z,24.00
2022-10-02T09:48:08.672Z,24.30
2022-10-02T09:50:47.677Z,24.40
2022-10-02T09:53:47.262Z,24.70
2022-10-02T09:56:13.946Z,25.10
2022-10-02T09:59:19.199Z,25.50
2022-10-02T10:02:24.778Z,25.90
2022-10-02T10:05:13.735Z,26.50
2022-10-02T10:07:56.093Z,27.10
2022-10-02T10:10:29.689Z,27.50
2022-10-02T10:13:20.406Z,28.10
2022-10-02T10:16:13.837Z,29.10
2022-10-02T10:18:49.225Z,30.30
2022-10-02T10:21:18.661Z,31.00
2022-10-02T10:24:00.821Z,30.10
2022-10-02T10:26:45.687Z,31.10
2022-10-02T10:29:58.445Z,31.90
2022-10-02T10:32:44.088Z,33.10
2022-10-02T10:35:31.382Z,34.70
2022-10-02T10:38:32.452Z,35.40
2022-10-02T10:41:02.295Z,35.40
2022-10-02T10:44:06.788Z,34.50
2022-10-02T10:46:56.887Z,35.10
2022-10-02T10:50:02.377Z,35.90
2022-10-02T10:53:04.032Z,36.00
2022-10-02T10:55:46.216Z,35.70
2022-10-02T10:58:28.738Z,35.40
2022-10-02T11:01:14.130Z,35.90
2022-10-02T11:04:17.969Z,36.00
2022-10-02T11:07:07.833Z,35.40
2022-10-02T11:10:00.009Z,35.60
2022-10-02T11:12:53.701Z,34.70
2022-10-02T11:15:49.421Z,35.50
2022-10-02T11:18:40.777Z,35.20
2022-10-02T11:21:28.818Z,34.40
2022-10-02T11:24:29.106Z,33.60
2022-10-02T11:27:31.278Z,32.90
2022-10-02T11:30:05.040Z,32.70
2022-10-02T11:33:10.765Z,33.10
2022-10-02T11:35:56.246Z,33.30
2022-10-02T11:38:53.955Z,33.70
2022-10-02T11:41:24.040Z,33.00
2022-10-02T11:44:01.805Z,32.50
2022-10-02T11:46:47.111Z,31.70
2022-10-02T11:49:38.876Z,31.40
2022-10-02T11:52:30.436Z,31.30
2022-10-02T11:55:08.748Z,31.40
2022-10-02T11:58:08.964Z,31.70
2022-10-02T12:00:55.615Z,31.80
2022-10-02T12:03:36.134Z,33.00
2022-10-02T12:06:33.580Z,35.00
2022-10-02T12:09:30.057Z,36.30
2022-10-02T12:12:29.077Z,37.80
2022-10-02T12:15:10.837Z,39.30
2022-10-02T12:17:55.823Z,40.20
2022-10-02T12:21:16.049Z,41.50
2022-10-02T12:24:09.124Z,43.00
2022-10-02T12:27:08.146Z,44.30
2022-10-02T12:29:53.470Z,45.10
2022-10-02T12:32:37.370Z,45.10
2022-10-02T12:35:40.216Z,44.80
2022-10-02T12:38:13.250Z,45.50
2022-10-02T12:40:58.205Z,46.10
2022-10-02T12:43:26.994Z,44.90
2022-10-02T12:46:27.583Z,45.10
2022-10-02T12:49:25.281Z,45.80
2022-10-02T12:52:18.456Z,46.10
2022-10-02T12:55:27.458Z,45.90
2022-10-02T12:58:25.647Z,45.20
2022-10-02T13:01:07.361Z,45.40
2022-10-02T13:03:56.546Z,45.20
2022-10-02T13:06:51.498Z,45.50
2022-10-02T13:09:30.014Z,46.10
2022-10-02T13:12:24.738Z,45.80
2022-10-02T13:15:05.167Z,45.80
2022-10-02T13:17:51.842Z,46.10
2022-10-02T13:20:37.974Z,46.10
2022-10-02T13:23:29.217Z,46.50
2022-10-02T13:26:06.736Z,46.80
2022-10-02T13:28:56.535Z,46.20
2022-10-02T13:31:53.987Z,45.20
2022-10-02T13:34:53.062Z,45.70
2022-10-02T13:37:57.441Z,45.90
2022-10-02T13:40:31.085Z,46.30
2022-10-02T13:43:19.007Z,46.40
2022-10-02T13:46:35.790Z,46.20
2022-10-02T13:49:28.918Z,46.30
2022-10-02T13:52:14.295Z,46.10
2022-10-02T13:55:16.684Z,45.60
2022-10-02T13:58:01.743Z,45.10
2022-10-02T14:00:38.032Z,45.10
2022-10-02T14:03:29.725Z,45.10
2022-10-02T14:06:06.870Z,44.80
2022-10-02T14:08:52.238Z,44.80
2022-10-02T14:11:29.938Z,44.80
2022-10-02T14:14:31.612Z,44.30
2022-10-02T14:17:01.132Z,44.40
2022-10-02T14:19:28.277Z,44.50
2022-10-02T14:22:21.135Z,44.00
2022-10-02T14:25:07.136Z,44.00
2022-10-02T14:27:55.052Z,44.90
2022-10-02T14:30:42.451Z,44.90
2022-10-02T14:33:43.631Z,44.80
2022-10-02T14:36:48.277Z,43.90
2022-10-02T14:39:37.372Z,43.90
2022-10-02T14:42:28.866Z,44.40
2022-10-02T14:45:22.371Z,44.50
2022-10-02T14:47:53.912Z,44.20
2022-10-02T14:50:20.658Z,43.40
2022-10-02T14:53:31.126Z,43.00
2022-10-02T14:56:22.489Z,42.80
2022-10-02T14:58:57.998Z,42.80
2022-10-02T15:01:29.037Z,42.90
2022-10-02T15:04:32.909Z,42.90
2022-10-02T15:07:02.135Z,42.70
2022-10-02T15:09:38.889Z,42.30
2022-10-02T15:12:09.160Z,41.90
2022-10-02T15:15:06.545Z,42.00
2022-10-02T15:18:00.009Z,42.00
2022-10-02T15:20:47.652Z,41.40
2022-10-02T15:23:39.000Z,41.30
2022-10-02T15:26:44.864Z,40.80
2022-10-02T15:29:30.529Z,40.20
2022-10-02T15:32:19.396Z,40.50
2022-10-02T15:35:07.275Z,40.20
2022-10-02T15:38:15.813Z,40.10
2022-10-02T15:41:12.800Z,39.50
2022-10-02T15:43:42.786Z,38.80
2022-10-02T15:46:34.697Z,38.80
2022-10-02T15:49:27.157Z,38.40
2022-10-02T15:52:07.001Z,37.70
2022-10-02T15:55:02.525Z,36.70
2022-10-02T15:58:08.307Z,36.40
2022-10-02T16:01:02.714Z,33.50
2022-10-02T16:04:02.072Z,33.40
2022-10-02T16:06:29.264Z,33.60
2022-10-02T16:09:02.138Z,33.70
2022-10-02T16:11:49.172Z,33.50
2022-10-02T16:14:27.330Z,32.70
2022-10-02T16:17:11.625Z,31.60
2022-10-02T16:19:57.285Z,30.40
2022-10-02T16:23:01.571Z,29.20
2022-10-02T16:25:38.412Z,27.90
2022-10-02T16:28:23.401Z,26.80
2022-10-02T16:30:50.130Z,26.20
2022-10-02T16:33:42.351Z,25.70
2022-10-02T16:36:19.057Z,25.10
2022-10-02T16:39:02.542Z,24.50
2022-10-02T16:41:39.496Z,24.00
2022-10-02T16:44:36.659Z,23.80
2022-10-02T16:47:37.714Z,23.60
2022-10-02T16:50:16.572Z,23.30
2022-10-02T16:52:56.142Z,22.80
2022-10-02T16:55:47.310Z,22.60
2022-10-02T16:58:28.987Z,22.60
2022-10-02T17:01:07.275Z,22.90
2022-10-02T17:03:56.511Z,22.90
2022-10-02T17:06:26.804Z,22.60
2022-10-02T17:09:19.092Z,22.40
2022-10-02T17:12:43.842Z,22.00
2022-10-02T17:15:29.479Z,21.70
2022-10-02T17:18:07.693Z,21.50
2022-10-02T17:20:48.004Z,21.40
2022-10-02T17:23:33.889Z,21.70
2022-10-02T17:26:20.678Z,21.90
2022-10-02T17:29:00.730Z,22.00
2022-10-02T17:31:58.629Z,22.00
2022-10-02T17:34:44.459Z,22.10
2022-10-02T17:37:14.199Z,21.70
2022-10-02T17:39:52.499Z,21.40
2022-10-02T17:42:41.171Z,21.10
2022-10-02T17:45:19.590Z,20.90
2022-10-02T17:48:02.865Z,20.60
2022-10-02T17:50:54.065Z,20.30
2022-10-02T17:53:48.620Z,20.20
2022-10-02T17:56:39.314Z,20.10
2022-10-02T17:59:33.476Z,20.10
2022-10-02T18:02:25.643Z,20.20
2022-10-02T18:05:11.376Z,20.00
2022-10-02T18:08:07.895Z,19.90
2022-10-02T18:10:44.197Z,19.90
2022-10-02T18:13:17.717Z,19.80
2022-10-02T18:16:10.075Z,19.80
2022-10-02T18:19:02.822Z,19.80
2022-10-02T18:21:50.880Z,19.60
2022-10-02T18:24:35.782Z,19.60
2022-10-02T18:27:22.930Z,19.50
2022-10-02T18:30:17.459Z,19.40
2022-10-02T18:32:50.982Z,19.20
2022-10-02T18:35:47.998Z,19.10
2022-10-02T18:38:45.057Z,19.10
2022-10-02T18:41:46.951Z,19.00
2022-10-02T18:44:38.468Z,19.00
2022-10-02T18:47:17.652Z,18.90
2022-10-02T18:50:02.452Z,18.80
2022-10-02T18:52:50.936Z,18.90
2022-10-02T18:55:39.174Z,18.90
2022-10-02T18:58:12.165Z,19.00
2022-10-02T19:01:00.223Z,19.00
2022-10-02T19:03:27.054Z,18.90
2022-10-02T19:06:04.212Z,18.90
2022-10-02T19:09:06.952Z,18.90
2022-10-02T19:11:42.336Z,18.80
2022-10-02T19:14:45.745Z,18.80
2022-10-02T19:17:24.086Z,18.80
2022-10-02T19:19:51.834Z,18.70
2022-10-02T19:22:30.896Z,18.70
2022-10-02T19:25:20.399Z,18.70
2022-10-02T19:27:54.713Z,18.70
2022-10-02T19:30:27.428Z,18.50
2022-10-02T19:32:58.414Z,18.50
2022-10-02T19:35:32.640Z,18.50
2022-10-02T19:38:08.591Z,18.00
2022-10-02T19:40:36.286Z,18.50
2022-10-02T19:43:33.192Z,18.50
2022-10-02T19:46:06.353Z,18.40
2022-10-02T19:48:33.548Z,18.40
2022-10-02T19:51:07.363Z,18.40
2022-10-02T19:53:50.580Z,18.40
2022-10-02T19:56:43.750Z,18.20
2022-10-02T19:59:29.152Z,17.90
2022-10-02T20:02:00.056Z,17.80
2022-10-02T20:04:30.792Z,17.80
2022-10-02T20:06:59.830Z,18.00
2022-10-02T20:09:45.229Z,18.00
2022-10-02T20:12:32.128Z,17.90
2022-10-02T20:15:11.222Z,17.80
2022-10-02T20:17:39.151Z,17.70
2022-10-02T20:20:12.680Z,17.70
2022-10-02T20:22:42.256Z,17.70
2022-10-02T20:25:20.859Z,17.70
2022-10-02T20:27:52.528Z,17.60
2022-10-02T20:30:22.529Z,17.60
2022-10-02T20:33:18.179Z,17.90
2022-10-02T20:35:49.429Z,17.90
2022-10-02T20:38:28.588Z,17.80
2022-10-02T20:40:58.980Z,18.00
2022-10-02T20:43:32.900Z,18.10
2022-10-02T20:46:33.749Z,18.00
2022-10-02T20:49:28.429Z,18.00
2022-10-02T20:52:14.417Z,17.80
2022-10-02T20:54:43.982Z,17.70
2022-10-02T20:57:56.013Z,17.60
2022-10-02T21:00:27.001Z,17.60
2022-10-02T21:03:02.874Z,17.60
2022-10-02T21:05:51.139Z,17.50
2022-10-02T21:08:56.009Z,17.60
2022-10-02T21:12:00.903Z,17.60
2022-10-02T21:14:34.990Z,17.60
2022-10-02T21:17:15.319Z,17.70
2022-10-02T21:20:16.695Z,17.70
2022-10-02T21:23:08.902Z,17.70
2022-10-02T21:26:00.657Z,17.60
2022-10-02T21:28:36.748Z,17.60
2022-10-02T21:31:19.013Z,17.50
2022-10-02T21:33:55.072Z,17.50
2022-10-02T21:36:36.124Z,17.40
2022-10-02T21:39:31.656Z,17.40
2022-10-02T21:42:41.612Z,17.40
2022-10-02T21:45:29.672Z,17.50
2022-10-02T21:48:30.549Z,17.50
2022-10-02T21:51:31.579Z,17.60
2022-10-02T21:54:13.973Z,17.50
2022-10-02T21:56:52.515Z,17.60
2022-10-02T21:59:38.317Z,17.70
2022-10-02T22:02:30.627Z,17.60
2022-10-02T22:05:15.872Z,17.60
2022-10-02T22:08:13.068Z,17.60
2022-10-02T22:11:00.838Z,17.60
2022-10-02T22:13:31.727Z,17.60
2022-10-02T22:16:16.955Z,17.70
2022-10-02T22:18:51.532Z,17.70
2022-10-02T22:21:46.007Z,17.60
2022-10-02T22:24:37.455Z,17.60
2022-10-02T22:27:21.541Z,17.60
2022-10-02T22:29:52.235Z,17.60
2022-10-02T22:33:12.258Z,17.60
2022-10-02T22:36:03.025Z,17.60
2022-10-02T22:38:37.714Z,17.60
2022-10-02T22:41:16.244Z,17.60
2022-10-02T22:44:09.252Z,17.70
2022-10-02T22:46:56.604Z,17.80
2022-10-02T22:49:52.470Z,17.80
2022-10-02T22:52:31.756Z,17.70
2022-10-02T22:55:15.084Z,17.60
2022-10-02T22:58:12.884Z,17.50
2022-10-02T23:00:58.513Z,17.40
2022-10-02T23:03:51.860Z,17.40
2022-10-02T23:06:42.804Z,17.50
2022-10-02T23:09:17.724Z,17.40
2022-10-02T23:11:53.555Z,17.40
2022-10-02T23:14:26.437Z,17.40
2022-10-02T23:17:18.150Z,17.40
2022-10-02T23:20:12.737Z,17.50
2022-10-02T23:22:52.446Z,17.50
2022-10-02T23:25:34.548Z,17.50
2022-10-02T23:28:04.856Z,17.60
2022-10-02T23:30:37.571Z,17.60
2022-10-02T23:33:13.837Z,17.50
2022-10-02T23:36:08.907Z,17.60
2022-10-02T23:39:02.497Z,17.60
2022-10-02T23:41:47.523Z,17.70
2022-10-02T23:44:20.570Z,17.60
2022-10-02T23:46:50.467Z,17.60
2022-10-02T23:49:24.549Z,17.60
2022-10-02T23:52:14.490Z,17.60
2022-10-02T23:54:49.087Z,17.60
2022-10-02T23:57:34.129Z,17.70
